Time;durP1;ratioP1;P1;durP2;ratioP2;P2;SDS_P1;SDS_P2;PMS_P1;PMS_P2;Temp;Humidity;BMP_temperature;BMP_pressure;BME280_temperature;BME280_humidity;BME280_pressure;Samples;Min_cycle;Max_cycle;Signal;HPM_P1;HPM_P2
2022/08/19 00:01:59;;;;;;;;;14.00;14.00;;;;;34.42;24.62;98765.59;5086168;28;9699;-78
2022/08/19 00:04:30;;;;;;;;;17.50;17.50;;;;;34.56;23.93;98763.00;5089139;28;8879;-78
2022/08/19 00:06:59;;;;;;;;;15.00;14.50;;;;;34.69;23.70;98756.22;5088731;28;8931;-77
2022/08/19 00:09:30;;;;;;;;;13.00;13.00;;;;;34.79;23.94;98756.03;5071927;28;8939;-77
2022/08/19 00:11:59;;;;;;;;;14.50;14.25;;;;;34.58;24.00;98754.72;5071415;28;8881;-79
2022/08/19 00:14:31;;;;;;;;;15.25;15.00;;;;;34.62;23.79;98745.22;5088487;28;8854;-78
2022/08/19 00:17:00;;;;;;;;;14.00;14.00;;;;;34.51;23.85;98753.72;5087943;28;8869;-78
2022/08/19 00:19:30;;;;;;;;;11.00;11.00;;;;;34.61;24.10;98759.78;5089143;28;8856;-77
2022/08/19 00:21:59;;;;;;;;;14.75;14.25;;;;;34.64;24.30;98759.44;5048367;28;8873;-79
2022/08/19 00:24:29;;;;;;;;;15.00;15.00;;;;;34.71;23.79;98755.03;5048687;28;8849;-77
2022/08/19 00:26:58;;;;;;;;;14.25;14.25;;;;;34.68;23.58;98751.84;5048729;28;8877;-79
2022/08/19 00:29:47;;;;;;;;;10.75;10.00;;;;;34.77;23.65;98749.94;5031657;28;8876;-78
2022/08/19 00:32:21;;;;;;;;;13.50;13.50;;;;;34.58;23.59;98749.31;5048590;28;9007;-78
2022/08/19 00:34:53;;;;;;;;;15.00;14.75;;;;;34.55;23.64;98755.06;5059220;28;8927;-78
2022/08/19 00:37:22;;;;;;;;;13.25;13.25;;;;;34.63;23.44;98752.31;5060109;28;8856;-76
2022/08/19 00:39:52;;;;;;;;;13.50;12.50;;;;;34.40;23.83;98754.09;5048731;28;8849;-77
2022/08/19 00:42:23;;;;;;;;;12.00;12.00;;;;;34.40;23.83;98745.97;5015818;28;8845;-77
2022/08/19 00:44:51;;;;;;;;;12.25;12.00;;;;;34.34;23.76;98737.53;5048327;28;8837;-78
2022/08/19 00:47:20;;;;;;;;;12.25;12.00;;;;;34.53;23.94;98733.56;5047721;28;8999;-78
2022/08/19 00:49:51;;;;;;;;;13.25;12.25;;;;;34.71;23.86;98735.25;5047822;28;8853;-77
2022/08/19 00:52:24;;;;;;;;;20.50;18.75;;;;;34.89;23.70;98735.81;5015558;28;8884;-76
2022/08/19 00:54:54;;;;;;;;;19.75;19.00;;;;;34.93;23.50;98737.13;5051025;28;8908;-78
2022/08/19 00:57:27;;;;;;;;;16.50;15.75;;;;;35.02;23.89;98737.13;5066562;28;8948;-77
2022/08/19 00:59:58;;;;;;;;;14.75;14.25;;;;;35.05;23.96;98731.31;5096978;28;8888;-79
2022/08/19 01:02:33;;;;;;;;;14.25;14.25;;;;;35.10;23.97;98729.75;5058298;28;8871;-77
2022/08/19 01:05:05;;;;;;;;;13.00;13.00;;;;;35.10;24.03;98723.50;5092861;28;8905;-77
2022/08/19 01:07:35;;;;;;;;;13.00;13.00;;;;;35.06;23.96;98723.03;5089207;28;8866;-77
2022/08/19 01:10:10;;;;;;;;;14.25;14.00;;;;;35.14;23.95;98728.41;5087960;28;8859;-77
2022/08/19 01:12:39;;;;;;;;;13.75;12.50;;;;;35.05;24.23;98721.34;5071625;28;8843;-78
2022/08/19 01:15:11;;;;;;;;;12.00;12.00;;;;;35.02;24.27;98724.41;5071750;28;8848;-78
2022/08/19 01:17:41;;;;;;;;;14.50;13.50;;;;;35.02;24.48;98731.69;5088482;28;8978;-79
2022/08/19 01:20:12;;;;;;;;;11.25;11.25;;;;;35.01;23.91;98724.56;5071648;28;8887;-80
2022/08/19 01:22:46;;;;;;;;;14.00;13.50;;;;;35.07;24.16;98734.72;5087011;28;8859;-79
2022/08/19 01:25:17;;;;;;;;;13.25;13.25;;;;;34.97;24.00;98732.22;5087495;28;8843;-79
2022/08/19 01:27:50;;;;;;;;;10.75;9.25;;;;;35.04;24.27;98735.91;5088239;28;8839;-77
2022/08/19 01:30:24;;;;;;;;;16.50;16.00;;;;;35.04;24.65;98737.78;5088063;28;8855;-77
2022/08/19 01:32:54;;;;;;;;;13.00;13.00;;;;;35.07;24.07;98734.72;5089364;28;8948;-77
2022/08/19 01:35:26;;;;;;;;;15.00;15.00;;;;;35.01;24.66;98730.88;5088522;28;8847;-76
2022/08/19 01:37:59;;;;;;;;;14.75;13.75;;;;;34.98;24.89;98733.91;5071588;28;8859;-77
2022/08/19 01:40:30;;;;;;;;;13.75;13.75;;;;;34.94;24.85;98733.44;5070037;28;8973;-78
2022/08/19 01:42:59;;;;;;;;;12.00;12.00;;;;;34.98;24.18;98722.25;5090335;28;8859;-79
2022/08/19 01:45:30;;;;;;;;;16.50;15.00;;;;;35.00;24.25;98731.03;5088517;27;8855;-78
2022/08/19 01:47:59;;;;;;;;;12.50;12.50;;;;;34.97;24.78;98725.97;5090193;28;8844;-79
2022/08/19 01:50:31;;;;;;;;;16.50;15.75;;;;;34.80;24.50;98731.44;5089130;28;9605;-78
2022/08/19 01:53:03;;;;;;;;;14.50;14.50;;;;;34.82;24.67;98723.16;5089701;28;8890;-77
2022/08/19 01:55:37;;;;;;;;;15.00;15.00;;;;;34.64;25.37;98732.34;5091669;28;8865;-77
2022/08/19 01:58:13;;;;;;;;;14.50;14.50;;;;;34.81;24.82;98730.44;5110531;28;8841;-78
2022/08/19 02:00:43;;;;;;;;;13.50;13.50;;;;;34.75;25.16;98733.88;5110103;28;8845;-79
2022/08/19 02:03:13;;;;;;;;;13.50;13.00;;;;;34.78;25.09;98735.38;5090762;28;8976;-79
2022/08/19 02:05:43;;;;;;;;;17.50;16.75;;;;;34.79;24.84;98737.06;5103298;28;8946;-78
2022/08/19 02:08:13;;;;;;;;;17.00;16.25;;;;;34.82;25.40;98737.56;5087837;28;8988;-76
2022/08/19 02:10:43;;;;;;;;;17.50;17.25;;;;;34.80;25.32;98731.44;5088939;28;8932;-77
2022/08/19 02:13:14;;;;;;;;;14.75;14.75;;;;;34.74;25.27;98735.72;5086925;28;8871;-76
2022/08/19 02:15:42;;;;;;;;;13.25;13.00;;;;;34.71;24.78;98730.66;5088847;28;8886;-77
2022/08/19 02:18:11;;;;;;;;;16.20;16.20;;;;;34.70;24.94;98742.50;5089031;28;8852;-77
2022/08/19 02:20:41;;;;;;;;;14.00;13.00;;;;;34.71;25.27;98737.97;5089212;28;8871;-79
2022/08/19 02:23:11;;;;;;;;;14.75;13.75;;;;;34.71;25.30;98741.50;5088024;28;8848;-78
2022/08/19 02:25:47;;;;;;;;;14.25;14.25;;;;;34.61;24.72;98746.22;5089043;28;8824;-77
2022/08/19 02:28:16;;;;;;;;;19.50;19.50;;;;;34.57;25.27;98742.19;5088993;28;8851;-77
2022/08/19 02:30:48;;;;;;;;;23.50;23.50;;;;;34.62;25.34;98744.38;5088286;28;8966;-77
2022/08/19 02:33:17;;;;;;;;;28.50;27.75;;;;;34.59;26.08;98742.84;5068427;28;8935;-77
2022/08/19 02:35:47;;;;;;;;;19.25;17.50;;;;;34.49;26.15;98753.91;5068452;28;8857;-77
2022/08/19 02:38:26;;;;;;;;;15.75;15.50;;;;;34.49;25.17;98743.06;5068452;28;8862;-80
2022/08/19 02:41:00;;;;;;;;;14.40;14.40;;;;;34.23;25.55;98743.28;5067020;28;8846;-79
2022/08/19 02:43:30;;;;;;;;;19.00;17.00;;;;;34.22;26.14;98744.34;5063734;28;8933;-78
2022/08/19 02:46:03;;;;;;;;;14.25;14.25;;;;;34.14;25.88;98742.47;5088618;28;8939;-77
2022/08/19 02:48:32;;;;;;;;;16.50;15.50;;;;;34.06;25.88;98744.31;5086498;28;9755;-78
2022/08/19 02:51:01;;;;;;;;;14.25;14.00;;;;;33.94;25.79;98741.13;5088556;28;8860;-77
2022/08/19 02:53:30;;;;;;;;;15.50;14.50;;;;;33.85;25.22;98736.75;5087180;28;8859;-78
2022/08/19 02:56:00;;;;;;;;;15.00;15.00;;;;;33.79;25.45;98732.84;5088401;28;9721;-78
2022/08/19 02:58:28;;;;;;;;;11.80;11.80;;;;;33.89;24.52;98728.09;5065209;28;8854;-79
2022/08/19 03:00:58;;;;;;;;;15.75;12.75;;;;;33.92;24.53;98725.06;5066857;28;8888;-77
2022/08/19 03:03:27;;;;;;;;;12.75;12.75;;;;;33.97;24.12;98719.13;5023962;28;8837;-77
2022/08/19 03:06:07;;;;;;;;;12.20;11.80;;;;;34.17;24.10;98727.75;5072543;28;8865;-77
2022/08/19 03:08:37;;;;;;;;;12.00;11.00;;;;;34.08;24.01;98728.75;5065216;28;8891;-78
2022/08/19 03:11:07;;;;;;;;;13.50;12.75;;;;;34.17;23.81;98731.31;5048924;28;8857;-76
2022/08/19 03:13:35;;;;;;;;;12.00;10.50;;;;;34.21;24.12;98725.56;5048222;28;8892;-77
2022/08/19 03:16:06;;;;;;;;;13.25;12.50;;;;;34.30;23.52;98733.47;5048951;28;8837;-78
2022/08/19 03:18:35;;;;;;;;;17.50;15.50;;;;;34.23;24.55;98737.03;5015158;28;8837;-78
2022/08/19 03:21:03;;;;;;;;;17.00;17.00;;;;;34.32;23.87;98731.44;4999598;28;8849;-77
2022/08/19 03:23:32;;;;;;;;;13.75;13.75;;;;;34.38;23.99;98735.31;5048308;28;8900;-78
2022/08/19 03:26:05;;;;;;;;;17.00;16.00;;;;;34.24;24.90;98734.19;5065075;28;9586;-78
2022/08/19 03:28:47;;;;;;;;;17.75;16.00;;;;;34.24;24.71;98738.75;5051842;28;8842;-78
2022/08/19 03:31:27;;;;;;;;;17.75;17.75;;;;;34.28;25.47;98738.22;5070494;28;8848;-81
2022/08/19 03:34:18;;;;;;;;;17.00;17.00;;;;;34.26;24.91;98747.53;5087707;28;8936;-76
2022/08/19 03:36:48;;;;;;;;;17.75;17.75;;;;;34.14;25.21;98738.88;5091102;28;8928;-78
2022/08/19 03:39:17;;;;;;;;;13.75;12.50;;;;;34.16;24.93;98739.63;5091402;28;8955;-77
2022/08/19 03:41:48;;;;;;;;;17.00;16.25;;;;;34.24;25.48;98747.72;5092992;28;8847;-78
2022/08/19 03:44:38;;;;;;;;;15.50;15.00;;;;;34.35;24.95;98746.50;5092468;28;10016;-77
2022/08/19 03:47:07;;;;;;;;;18.00;16.25;;;;;34.32;25.46;98744.97;5091945;28;8957;-77
2022/08/19 03:49:36;;;;;;;;;13.50;12.50;;;;;34.25;24.84;98746.69;5090651;28;9601;-78
2022/08/19 03:52:07;;;;;;;;;15.25;14.75;;;;;34.10;24.73;98754.66;5048639;28;8996;-78
2022/08/19 03:54:37;;;;;;;;;18.75;17.75;;;;;34.14;25.05;98756.00;5032134;28;8903;-78
2022/08/19 03:57:07;;;;;;;;;15.25;15.00;;;;;34.13;25.46;98758.88;4998698;28;8961;-78
2022/08/19 03:59:39;;;;;;;;;20.75;19.75;;;;;34.30;26.19;98757.00;4980542;28;8887;-78
2022/08/19 04:02:10;;;;;;;;;17.00;16.00;;;;;34.22;25.68;98765.13;4979864;28;8840;-78
2022/08/19 04:04:40;;;;;;;;;17.25;15.25;;;;;34.14;25.52;98752.41;4996578;28;8941;-78
2022/08/19 04:07:10;;;;;;;;;31.25;28.50;;;;;34.11;25.31;98759.03;5012367;28;8832;-79
2022/08/19 04:09:39;;;;;;;;;22.00;20.50;;;;;34.07;26.12;98756.84;5028787;28;8922;-78
2022/08/19 04:12:08;;;;;;;;;24.25;23.50;;;;;33.97;26.62;98755.16;5044128;28;8860;-77
2022/08/19 04:14:39;;;;;;;;;20.50;20.50;;;;;33.74;26.87;98757.72;5052829;28;8883;-77
2022/08/19 04:17:07;;;;;;;;;22.25;21.75;;;;;33.95;26.25;98764.44;5048589;28;8853;-78
2022/08/19 04:19:38;;;;;;;;;33.25;29.75;;;;;33.86;27.02;98769.03;5033879;28;8953;-77
2022/08/19 04:22:07;;;;;;;;;32.75;30.75;;;;;33.91;27.11;98763.09;5017727;28;8900;-79
2022/08/19 04:24:36;;;;;;;;;24.50;23.25;;;;;33.93;26.50;98752.94;5057206;28;8899;-76
2022/08/19 04:27:06;;;;;;;;;19.50;18.00;;;;;33.86;26.18;98760.06;5021538;28;8935;-78
2022/08/19 04:29:35;;;;;;;;;23.00;22.00;;;;;33.88;26.52;98758.88;5072137;28;8850;-79
2022/08/19 04:32:05;;;;;;;;;22.50;21.25;;;;;34.01;26.77;98758.38;5069933;28;8847;-77
2022/08/19 04:34:38;;;;;;;;;35.00;30.00;;;;;34.22;26.02;98760.56;5071060;28;8854;-79
2022/08/19 04:37:31;;;;;;;;;41.25;35.50;;;;;34.36;26.22;98761.72;5081687;28;8839;-77
2022/08/19 04:42:53;;;;;;;;;33.25;31.75;;;;;34.54;26.36;98762.34;5089498;28;8931;-76
2022/08/19 04:45:23;;;;;;;;;33.50;30.00;;;;;34.58;26.09;98762.84;5088934;28;9617;-79
2022/08/19 04:47:57;;;;;;;;;33.75;29.75;;;;;34.69;26.17;98767.91;5089932;28;8971;-78
2022/08/19 04:50:45;;;;;;;;;28.75;28.75;;;;;34.73;26.33;98763.00;5089666;28;8965;-80
2022/08/19 04:53:14;;;;;;;;;24.50;24.50;;;;;34.82;26.29;98764.66;5091264;28;8859;-81
2022/08/19 04:55:43;;;;;;;;;28.50;28.25;;;;;34.89;25.83;98762.91;5089850;28;8859;-80
2022/08/19 04:58:12;;;;;;;;;24.00;23.25;;;;;34.93;25.85;98764.25;5089376;28;9052;-79
2022/08/19 05:00:40;;;;;;;;;22.75;21.50;;;;;35.00;25.45;98758.97;5088096;28;8855;-78
2022/08/19 05:03:11;;;;;;;;;26.25;24.25;;;;;35.08;25.60;98761.63;5089490;28;8876;-78
2022/08/19 05:05:41;;;;;;;;;39.75;33.00;;;;;35.13;26.26;98752.97;5090041;28;8844;-80
2022/08/19 05:08:13;;;;;;;;;32.00;29.75;;;;;35.20;26.02;98754.00;5089866;28;8870;-77
2022/08/19 05:10:44;;;;;;;;;27.25;26.25;;;;;35.08;25.58;98753.50;5088525;28;8943;-77
2022/08/19 05:13:12;;;;;;;;;24.75;22.25;;;;;35.10;25.81;98747.91;5071257;28;8871;-77
2022/08/19 05:15:41;;;;;;;;;18.00;18.00;;;;;34.97;25.08;98747.63;5089159;28;8871;-79
2022/08/19 05:23:44;;;;;;;;;11.80;11.80;;;;;34.99;25.00;98753.72;5093262;28;8828;-80
2022/08/19 05:26:13;;;;;;;;;10.00;10.00;;;;;34.96;24.94;98757.63;5089441;28;8855;-79
2022/08/19 05:28:41;;;;;;;;;12.00;12.00;;;;;34.98;24.44;98761.00;5088706;28;8859;-78
2022/08/19 05:31:11;;;;;;;;;12.80;10.80;;;;;34.98;24.71;98754.75;5089597;28;8847;-78
2022/08/19 05:33:41;;;;;;;;;13.00;13.00;;;;;35.08;24.29;98764.34;5088526;28;8966;-79
2022/08/19 05:36:10;;;;;;;;;12.50;11.75;;;;;35.17;24.08;98759.72;5087791;28;8879;-78
2022/08/19 05:38:38;;;;;;;;;11.60;11.60;;;;;35.29;23.65;98763.72;5087752;28;8852;-79
2022/08/19 05:41:09;;;;;;;;;11.60;11.60;;;;;35.41;23.63;98760.59;5087885;28;9090;-79
2022/08/19 05:43:38;;;;;;;;;15.00;15.00;;;;;35.51;23.21;98761.22;5089802;28;8870;-78
2022/08/19 05:46:08;;;;;;;;;14.50;14.50;;;;;35.64;23.66;98760.63;5090150;28;8844;-78
2022/08/19 05:48:36;;;;;;;;;14.00;12.25;;;;;35.80;23.18;98756.97;5089601;28;10206;-82
2022/08/19 05:51:08;;;;;;;;;17.00;15.75;;;;;35.94;23.05;98761.59;5069822;28;8966;-80
2022/08/19 05:53:37;;;;;;;;;14.25;14.25;;;;;36.07;22.69;98755.53;5090041;28;8851;-79
2022/08/19 05:56:06;;;;;;;;;14.00;14.00;;;;;36.19;23.05;98756.81;5089615;28;8910;-76
2022/08/19 05:58:35;;;;;;;;;13.75;12.75;;;;;36.29;23.01;98753.81;5045892;28;8890;-78
2022/08/19 06:01:05;;;;;;;;;16.00;14.00;;;;;36.32;23.19;98750.72;5045238;28;8873;-82
2022/08/19 06:03:34;;;;;;;;;14.25;14.25;;;;;36.37;22.97;98751.03;5030081;28;9066;-79
2022/08/19 06:06:03;;;;;;;;;14.00;14.00;;;;;36.41;22.77;98746.91;5047147;28;8980;-79
2022/08/19 06:08:33;;;;;;;;;14.50;14.50;;;;;36.46;22.85;98751.75;5033202;28;8950;-79
2022/08/19 06:11:20;;;;;;;;;15.00;14.50;;;;;36.58;23.11;98752.13;5009997;28;8856;-78
2022/08/19 06:13:52;;;;;;;;;13.00;13.00;;;;;36.50;23.23;98761.22;5009308;28;8981;-78
2022/08/19 06:16:28;;;;;;;;;13.00;12.75;;;;;36.53;22.89;98768.16;5009688;28;9002;-78
2022/08/19 06:19:00;;;;;;;;;14.25;13.25;;;;;36.53;23.58;98768.16;5026295;28;8864;-79
2022/08/19 06:21:30;;;;;;;;;17.00;15.50;;;;;36.62;23.17;98773.31;5026488;28;8910;-80
2022/08/19 06:24:00;;;;;;;;;14.25;14.25;;;;;36.65;23.65;98770.22;5026173;28;8855;-79
2022/08/19 06:26:29;;;;;;;;;15.50;13.50;;;;;36.69;23.51;98770.69;5005546;28;9642;-81
2022/08/19 06:28:58;;;;;;;;;16.00;15.00;;;;;36.68;23.60;98769.03;5036452;28;8863;-79
2022/08/19 06:31:29;;;;;;;;;14.50;14.50;;;;;36.73;23.30;98773.88;5088759;28;9590;-78
2022/08/19 06:33:57;;;;;;;;;13.75;13.75;;;;;36.87;23.10;98771.16;5087754;28;8847;-79
2022/08/19 06:36:31;;;;;;;;;15.25;13.25;;;;;36.90;22.92;98772.66;5088587;28;9002;-79
2022/08/19 06:39:03;;;;;;;;;14.00;13.75;;;;;36.96;22.81;98766.47;5065207;28;8893;-81
2022/08/19 06:41:34;;;;;;;;;14.00;14.00;;;;;37.02;23.35;98767.59;5082543;28;8875;-79
2022/08/19 06:44:11;;;;;;;;;14.00;14.00;;;;;37.03;22.93;98761.97;5047377;28;8844;-80
2022/08/19 06:46:42;;;;;;;;;16.25;15.50;;;;;37.08;23.43;98755.94;5064961;28;8855;-78
2022/08/19 06:49:13;;;;;;;;;19.00;17.00;;;;;37.23;23.42;98758.66;5081607;28;9030;-79
2022/08/19 06:51:43;;;;;;;;;20.25;16.75;;;;;37.16;23.85;98757.72;5064959;28;8990;-79
2022/08/19 06:54:12;;;;;;;;;17.00;16.75;;;;;37.29;24.09;98762.47;5065214;28;9066;-81
2022/08/19 06:56:48;;;;;;;;;16.75;16.75;;;;;37.16;23.93;98774.88;5064712;28;8894;-78
2022/08/19 06:59:19;;;;;;;;;16.75;15.25;;;;;37.15;24.18;98770.50;5063891;28;8962;-81
2022/08/19 07:01:51;;;;;;;;;20.50;19.75;;;;;37.17;24.42;98775.75;5015714;28;8970;-78
2022/08/19 07:04:22;;;;;;;;;17.75;17.75;;;;;37.26;24.81;98772.72;5075684;28;9780;-78
2022/08/19 07:06:57;;;;;;;;;20.00;20.00;;;;;37.24;25.07;98772.06;5070139;28;8856;-79
2022/08/19 07:09:27;;;;;;;;;20.75;20.00;;;;;37.28;25.04;98780.69;5065305;28;8864;-78
2022/08/19 07:11:58;;;;;;;;;22.00;22.00;;;;;37.45;24.74;98779.41;5064793;28;8864;-77
2022/08/19 07:14:28;;;;;;;;;22.50;20.75;;;;;37.42;24.82;98782.50;5063989;28;9215;-79
2022/08/19 07:16:58;;;;;;;;;18.75;18.25;;;;;37.58;24.98;98784.16;5061077;28;8859;-79
2022/08/19 07:19:28;;;;;;;;;18.50;17.75;;;;;37.54;25.01;98782.81;5065991;28;8854;-81
2022/08/19 07:21:57;;;;;;;;;19.00;18.75;;;;;37.61;25.19;98782.94;5068930;28;8936;-78
2022/08/19 07:24:28;;;;;;;;;22.50;21.00;;;;;37.70;25.03;98779.06;5087123;28;8975;-79
2022/08/19 07:27:04;;;;;;;;;23.00;21.75;;;;;37.69;24.78;98782.78;5086756;28;9081;-78
2022/08/19 07:29:42;;;;;;;;;19.75;19.25;;;;;37.74;24.90;98793.13;5088140;28;8868;-78
2022/08/19 07:32:11;;;;;;;;;19.50;19.50;;;;;37.65;25.13;98795.13;5085120;28;8856;-79
2022/08/19 07:34:41;;;;;;;;;21.00;18.75;;;;;37.69;24.99;98795.56;5086278;28;8862;-79
2022/08/19 07:37:10;;;;;;;;;18.50;18.50;;;;;37.62;25.11;98793.63;5069647;28;9656;-79
2022/08/19 07:39:40;;;;;;;;;19.50;19.50;;;;;37.78;25.20;98787.06;5087684;28;8860;-81
2022/08/19 07:42:11;;;;;;;;;20.50;20.50;;;;;37.76;24.96;98791.03;5087654;28;8855;-79
2022/08/19 07:44:41;;;;;;;;;23.50;22.25;;;;;37.84;24.87;98791.72;5087744;28;8835;-81
2022/08/19 07:47:18;;;;;;;;;21.00;21.00;;;;;37.86;24.89;98796.97;5087914;28;8914;-80
2022/08/19 07:50:10;;;;;;;;;19.75;19.75;;;;;38.05;25.15;98795.47;5086873;28;8848;-81
2022/08/19 07:52:40;;;;;;;;;22.50;21.25;;;;;38.06;25.01;98783.56;5087619;28;8860;-80
2022/08/19 07:55:12;;;;;;;;;22.25;21.50;;;;;38.25;24.96;98794.84;5086634;28;8851;-79
2022/08/19 07:58:00;;;;;;;;;20.25;19.00;;;;;38.37;24.74;98777.72;5086216;28;9001;-78
2022/08/19 08:00:30;;;;;;;;;18.00;18.00;;;;;38.44;24.09;98768.78;5087491;28;8840;-80
2022/08/19 08:02:59;;;;;;;;;19.00;18.75;;;;;38.38;23.95;98765.78;5086491;28;8952;-79
2022/08/19 08:11:02;;;;;;;;;16.50;16.50;;;;;38.51;23.73;98751.41;5086876;28;8944;-79
2022/08/19 08:13:36;;;;;;;;;19.00;17.75;;;;;38.45;23.97;98749.47;5087057;28;8876;-80
2022/08/19 08:16:06;;;;;;;;;14.75;14.75;;;;;38.49;23.77;98752.63;5088055;28;8852;-78
2022/08/19 08:18:43;;;;;;;;;16.25;16.25;;;;;38.39;23.62;98750.28;5086097;28;8866;-77
2022/08/19 08:21:20;;;;;;;;;16.50;16.50;;;;;38.57;23.39;98747.06;5086058;28;8844;-80
2022/08/19 08:23:49;;;;;;;;;19.50;18.50;;;;;38.67;24.13;98752.16;5088341;28;8824;-79
2022/08/19 08:26:23;;;;;;;;;18.25;17.25;;;;;38.75;23.61;98754.69;5090851;28;8860;-79
2022/08/19 08:28:52;;;;;;;;;15.25;15.25;;;;;38.68;23.31;98749.22;5090383;28;9120;-79
2022/08/19 08:31:21;;;;;;;;;17.25;16.75;;;;;38.68;23.23;98749.22;5090601;28;8970;-79
2022/08/19 08:33:50;;;;;;;;;16.25;16.25;;;;;38.82;23.44;98746.56;5089208;28;8844;-79
2022/08/19 08:36:19;;;;;;;;;14.25;14.25;;;;;38.78;23.74;98746.13;5088800;28;8859;-79
2022/08/19 08:38:48;;;;;;;;;15.00;15.00;;;;;38.93;23.03;98752.28;5089256;28;8855;-77
2022/08/19 08:41:32;;;;;;;;;15.25;15.00;;;;;39.06;23.09;98750.66;5054498;28;8856;-78
2022/08/19 08:44:04;;;;;;;;;18.25;17.25;;;;;39.19;22.38;98750.72;5089297;28;8948;-79
2022/08/19 08:46:40;;;;;;;;;16.25;16.25;;;;;39.35;22.53;98754.94;5089932;28;9736;-79
2022/08/19 08:49:21;;;;;;;;;17.00;15.50;;;;;39.55;21.94;98755.03;5088738;28;8858;-81
2022/08/19 08:51:55;;;;;;;;;14.00;13.00;;;;;39.28;21.45;98757.63;5071794;28;9011;-80
2022/08/19 08:54:34;;;;;;;;;15.25;14.50;;;;;39.21;21.60;98745.91;5089322;28;8844;-81
2022/08/19 08:57:08;;;;;;;;;14.50;12.75;;;;;39.13;22.15;98751.53;5071811;28;8896;-78
2022/08/19 08:59:41;;;;;;;;;14.25;14.25;;;;;39.32;21.33;98758.94;5090227;28;8905;-79
2022/08/19 09:02:10;;;;;;;;;15.25;13.75;;;;;39.32;21.60;98760.81;5090120;28;8848;-80
2022/08/19 09:04:39;;;;;;;;;13.25;13.25;;;;;39.14;21.71;98753.22;5055899;28;8904;-79
2022/08/19 09:07:23;;;;;;;;;12.75;12.75;;;;;39.42;21.25;98750.34;5093614;28;8910;-79
2022/08/19 09:10:11;;;;;;;;;14.25;13.25;;;;;39.46;21.03;98743.44;5089352;28;8828;-81
2022/08/19 09:12:49;;;;;;;;;14.50;14.25;;;;;39.57;20.70;98729.19;5091266;28;9010;-80
2022/08/19 09:15:29;;;;;;;;;12.00;12.00;;;;;39.49;21.09;98726.69;5090070;28;8932;-79
2022/08/19 09:18:06;;;;;;;;;14.75;14.75;;;;;39.50;21.22;98728.34;5090753;28;9091;-77
2022/08/19 09:20:35;;;;;;;;;11.00;11.00;;;;;39.40;20.71;98722.44;5090344;28;8862;-78
2022/08/19 09:23:09;;;;;;;;;15.00;14.00;;;;;39.50;20.62;98717.41;5089847;28;8848;-78
2022/08/19 09:25:39;;;;;;;;;13.00;13.00;;;;;39.68;20.94;98724.16;5037954;28;8855;-78
2022/08/19 09:28:09;;;;;;;;;12.25;12.25;;;;;39.72;19.85;98729.00;5067530;28;8981;-78
2022/08/19 09:30:52;;;;;;;;;13.00;13.00;;;;;39.66;20.02;98721.66;5071573;28;8830;-81
2022/08/19 09:33:22;;;;;;;;;16.25;16.25;;;;;39.71;20.64;98721.84;5069958;28;8862;-79
2022/08/19 09:35:50;;;;;;;;;13.00;13.00;;;;;39.82;20.31;98723.09;5069123;28;8862;-79
2022/08/19 09:38:21;;;;;;;;;14.25;13.75;;;;;39.89;20.70;98732.19;5067967;28;8862;-78
2022/08/19 09:40:50;;;;;;;;;12.75;12.00;;;;;40.08;21.03;98729.66;5069500;28;8835;-80
2022/08/19 09:43:18;;;;;;;;;12.75;12.75;;;;;40.03;19.65;98732.16;5065836;28;8835;-79
2022/08/19 09:46:05;;;;;;;;;13.00;13.00;;;;;40.16;20.18;98726.69;5068976;28;8870;-78
2022/08/19 09:48:34;;;;;;;;;15.25;14.25;;;;;40.23;21.96;98719.31;5106767;27;8835;-80
2022/08/19 09:51:05;;;;;;;;;16.00;15.00;;;;;40.35;21.68;98725.00;5087493;28;9089;-78
2022/08/19 09:53:33;;;;;;;;;14.75;14.75;;;;;40.36;21.61;98715.72;5087506;28;9726;-79
2022/08/19 09:56:06;;;;;;;;;14.50;14.00;;;;;40.52;20.85;98725.38;5087463;28;8855;-79
2022/08/19 09:58:37;;;;;;;;;17.75;16.00;;;;;40.65;22.08;98724.47;5052627;28;8966;-78
2022/08/19 10:01:09;;;;;;;;;16.75;16.75;;;;;40.72;21.64;98720.66;5053336;28;8871;-79
2022/08/19 10:03:38;;;;;;;;;16.25;16.25;;;;;40.71;21.50;98715.41;5071402;28;9006;-79
2022/08/19 10:06:06;;;;;;;;;15.25;14.75;;;;;40.80;21.44;98705.94;5088730;28;8852;-78
2022/08/19 10:08:46;;;;;;;;;17.00;15.50;;;;;40.86;21.64;98699.59;5088738;28;8986;-81
2022/08/19 10:11:20;;;;;;;;;19.00;18.00;;;;;40.64;21.09;98698.19;5088807;28;8982;-79
2022/08/19 10:14:06;;;;;;;;;19.50;19.50;;;;;40.78;21.57;98697.13;5087492;28;9628;-81
2022/08/19 10:16:38;;;;;;;;;19.00;18.25;;;;;40.77;20.86;98708.25;5086759;28;8970;-77
2022/08/19 10:19:09;;;;;;;;;16.50;15.75;;;;;40.98;20.30;98705.19;5051821;28;8959;-78
2022/08/19 10:21:38;;;;;;;;;17.50;16.25;;;;;40.87;20.75;98708.63;5086998;28;8885;-79
2022/08/19 10:24:08;;;;;;;;;19.00;19.00;;;;;41.06;19.80;98699.50;5068950;28;8867;-78
2022/08/19 10:26:41;;;;;;;;;18.00;16.50;;;;;41.17;20.06;98699.84;5086456;28;8855;-78
2022/08/19 10:29:11;;;;;;;;;15.25;15.25;;;;;40.95;20.43;98691.97;5088123;28;8979;-78
2022/08/19 10:31:41;;;;;;;;;15.50;15.50;;;;;41.13;19.26;98702.16;5087284;28;8978;-78
2022/08/19 10:34:30;;;;;;;;;18.25;18.25;;;;;41.26;19.69;98704.03;5071569;28;8856;-79
2022/08/19 10:37:00;;;;;;;;;14.75;14.75;;;;;41.46;18.96;98696.50;5086316;28;8844;-80
2022/08/19 10:39:30;;;;;;;;;13.50;13.50;;;;;41.47;17.99;98691.88;5086955;28;8836;-81
2022/08/19 10:42:10;;;;;;;;;13.75;13.25;;;;;41.56;18.14;98690.53;5088313;28;8924;-80
2022/08/19 10:44:39;;;;;;;;;12.25;12.25;;;;;41.62;17.33;98697.88;5102459;28;8966;-81
2022/08/19 10:47:10;;;;;;;;;13.75;12.50;;;;;41.70;17.55;98699.50;5086485;28;8952;-79
2022/08/19 10:52:43;;;;;;;;;14.00;12.50;;;;;41.77;17.36;98692.06;5087552;28;8960;-77
2022/08/19 10:58:12;;;;;;;;;10.00;9.25;;;;;41.93;17.20;98689.81;5017768;28;8854;-79
2022/08/19 11:00:43;;;;;;;;;13.00;12.25;;;;;42.13;17.15;98695.97;5047101;28;8956;-80
2022/08/19 11:03:13;;;;;;;;;13.00;13.00;;;;;42.10;17.48;98690.94;5046029;28;9710;-78
2022/08/19 11:05:41;;;;;;;;;12.25;11.50;;;;;42.19;16.62;98675.88;5046028;28;8866;-80
2022/08/19 11:08:11;;;;;;;;;10.25;10.25;;;;;42.39;16.73;98674.81;5032282;28;8873;-79
2022/08/19 11:10:58;;;;;;;;;12.50;11.50;;;;;42.48;16.38;98668.00;5029744;28;8846;-79
2022/08/19 11:13:28;;;;;;;;;11.25;11.25;;;;;42.47;15.77;98671.78;5012373;28;8857;-81
2022/08/19 11:16:02;;;;;;;;;12.75;12.75;;;;;42.65;16.53;98666.28;5045350;28;8854;-79
2022/08/19 11:18:43;;;;;;;;;13.75;12.00;;;;;42.74;16.19;98669.53;5044669;28;9059;-80
2022/08/19 11:21:14;;;;;;;;;12.00;12.00;;;;;42.78;16.41;98668.03;5043459;28;8964;-80
2022/08/19 11:23:43;;;;;;;;;12.00;12.00;;;;;42.89;16.41;98665.59;5061230;28;9016;-78
2022/08/19 11:26:11;;;;;;;;;11.00;10.25;;;;;43.09;16.21;98666.13;5045008;28;8846;-79
2022/08/19 11:28:40;;;;;;;;;11.00;11.00;;;;;43.11;15.68;98661.25;5049673;28;8858;-81
2022/08/19 11:31:11;;;;;;;;;10.00;10.00;;;;;43.16;16.02;98657.78;5067139;28;8900;-81
2022/08/19 11:33:41;;;;;;;;;9.25;9.25;;;;;43.40;15.91;98654.03;5067495;28;8979;-79
2022/08/19 11:36:16;;;;;;;;;14.25;13.50;;;;;43.51;15.65;98663.38;5083528;28;8843;-80
2022/08/19 11:38:44;;;;;;;;;10.00;9.00;;;;;43.47;15.03;98661.34;5087312;28;8852;-79
2022/08/19 11:41:13;;;;;;;;;11.00;11.00;;;;;43.58;15.57;98657.78;5087565;28;8951;-80
2022/08/19 11:43:42;;;;;;;;;9.75;9.75;;;;;43.78;14.77;98662.94;5087920;28;8824;-81
2022/08/19 11:46:17;;;;;;;;;10.00;9.75;;;;;43.70;14.90;98650.41;5086085;28;9729;-80
2022/08/19 11:48:47;;;;;;;;;12.00;12.00;;;;;43.96;14.82;98657.34;5087461;28;8887;-81
2022/08/19 11:51:21;;;;;;;;;12.00;12.00;;;;;44.03;14.75;98654.47;5087558;28;8870;-80
2022/08/19 11:53:50;;;;;;;;;10.50;10.50;;;;;44.21;14.45;98652.69;5021912;28;8838;-80
2022/08/19 11:56:19;;;;;;;;;10.50;10.50;;;;;44.30;14.81;98662.22;5067731;28;8893;-81
2022/08/19 11:58:48;;;;;;;;;10.75;10.75;;;;;44.43;14.62;98652.84;5032949;28;8862;-79
2022/08/19 12:01:19;;;;;;;;;13.50;10.75;;;;;44.67;14.13;98651.75;5069478;28;8862;-80
2022/08/19 12:03:52;;;;;;;;;14.00;12.25;;;;;44.86;13.70;98646.88;5070533;28;8854;-82
2022/08/19 12:06:28;;;;;;;;;12.25;11.00;;;;;44.93;13.74;98650.31;5075832;28;8840;-79